sensor_id;sensor_type;location;lat;lon;timestamp;P1;durP1;ratioP1;P2;durP2;ratioP2
20090;SDS011;10205;49.678;6.560;2022-07-30T00:01:51;2.45;;;1.73;;
20090;SDS011;10205;49.678;6.560;2022-07-30T00:04:18;2.17;;;1.95;;
20090;SDS011;10205;49.678;6.560;2022-07-30T00:06:46;1.73;;;1.63;;
20090;SDS011;10205;49.678;6.560;2022-07-30T00:09:13;2.70;;;1.92;;
20090;SDS011;10205;49.678;6.560;2022-07-30T00:11:41;2.25;;;2.05;;
20090;SDS011;10205;49.678;6.560;2022-07-30T00:14:08;2.08;;;1.90;;
20090;SDS011;10205;49.678;6.560;2022-07-30T00:16:37;2.47;;;2.15;;
20090;SDS011;10205;49.678;6.560;2022-07-30T00:19:05;2.20;;;1.73;;
20090;SDS011;10205;49.678;6.560;2022-07-30T00:21:32;2.20;;;1.73;;
20090;SDS011;10205;49.678;6.560;2022-07-30T00:23:59;2.25;;;2.05;;
20090;SDS011;10205;49.678;6.560;2022-07-30T00:26:27;2.70;;;1.88;;
20090;SDS011;10205;49.678;6.560;2022-07-30T00:28:54;2.20;;;2.00;;
20090;SDS011;10205;49.678;6.560;2022-07-30T00:31:21;2.85;;;1.98;;
20090;SDS011;10205;49.678;6.560;2022-07-30T00:33:53;3.70;;;2.70;;
20090;SDS011;10205;49.678;6.560;2022-07-30T00:36:20;2.28;;;1.90;;
20090;SDS011;10205;49.678;6.560;2022-07-30T00:38:48;2.08;;;1.85;;
20090;SDS011;10205;49.678;6.560;2022-07-30T00:41:15;2.25;;;2.00;;
20090;SDS011;10205;49.678;6.560;2022-07-30T00:43:43;2.13;;;1.92;;
20090;SDS011;10205;49.678;6.560;2022-07-30T00:46:10;1.83;;;1.67;;
20090;SDS011;10205;49.678;6.560;2022-07-30T00:48:38;1.92;;;1.50;;
20090;SDS011;10205;49.678;6.560;2022-07-30T00:51:09;2.28;;;1.98;;
20090;SDS011;10205;49.678;6.560;2022-07-30T00:53:36;1.77;;;1.67;;
20090;SDS011;10205;49.678;6.560;2022-07-30T00:56:04;1.80;;;1.70;;
20090;SDS011;10205;49.678;6.560;2022-07-30T00:58:32;2.38;;;2.03;;
20090;SDS011;10205;49.678;6.560;2022-07-30T01:00:59;1.88;;;1.65;;
20090;SDS011;10205;49.678;6.560;2022-07-30T01:03:27;1.70;;;1.60;;
20090;SDS011;10205;49.678;6.560;2022-07-30T01:05:54;2.35;;;2.05;;
20090;SDS011;10205;49.678;6.560;2022-07-30T01:08:22;2.33;;;2.00;;
20090;SDS011;10205;49.678;6.560;2022-07-30T01:10:50;2.05;;;1.70;;
20090;SDS011;10205;49.678;6.560;2022-07-30T01:13:17;2.03;;;1.63;;
20090;SDS011;10205;49.678;6.560;2022-07-30T01:15:44;2.85;;;1.90;;
20090;SDS011;10205;49.678;6.560;2022-07-30T01:18:11;2.50;;;1.80;;
20090;SDS011;10205;49.678;6.560;2022-07-30T01:20:44;2.38;;;2.17;;
20090;SDS011;10205;49.678;6.560;2022-07-30T01:23:32;2.33;;;1.70;;
20090;SDS011;10205;49.678;6.560;2022-07-30T01:26:09;2.47;;;1.90;;
20090;SDS011;10205;49.678;6.560;2022-07-30T01:28:43;2.33;;;1.88;;
20090;SDS011;10205;49.678;6.560;2022-07-30T01:31:15;2.15;;;1.67;;
20090;SDS011;10205;49.678;6.560;2022-07-30T01:33:46;2.28;;;1.88;;
20090;SDS011;10205;49.678;6.560;2022-07-30T01:36:15;2.33;;;1.90;;
20090;SDS011;10205;49.678;6.560;2022-07-30T01:38:47;3.28;;;1.90;;
20090;SDS011;10205;49.678;6.560;2022-07-30T01:41:18;2.95;;;2.10;;
20090;SDS011;10205;49.678;6.560;2022-07-30T01:43:46;2.53;;;1.70;;
20090;SDS011;10205;49.678;6.560;2022-07-30T01:46:14;2.45;;;1.98;;
20090;SDS011;10205;49.678;6.560;2022-07-30T01:48:42;2.65;;;1.85;;
20090;SDS011;10205;49.678;6.560;2022-07-30T01:51:12;2.10;;;1.90;;
20090;SDS011;10205;49.678;6.560;2022-07-30T01:53:43;2.10;;;1.70;;
20090;SDS011;10205;49.678;6.560;2022-07-30T01:56:15;2.28;;;1.75;;
20090;SDS011;10205;49.678;6.560;2022-07-30T01:58:50;1.90;;;1.75;;
20090;SDS011;10205;49.678;6.560;2022-07-30T02:01:19;2.17;;;1.98;;
20090;SDS011;10205;49.678;6.560;2022-07-30T02:03:46;1.73;;;1.63;;
20090;SDS011;10205;49.678;6.560;2022-07-30T02:06:16;2.05;;;1.70;;
20090;SDS011;10205;49.678;6.560;2022-07-30T02:08:50;2.47;;;1.80;;
20090;SDS011;10205;49.678;6.560;2022-07-30T02:11:23;1.88;;;1.60;;
20090;SDS011;10205;49.678;6.560;2022-07-30T02:14:10;2.50;;;1.90;;
20090;SDS011;10205;49.678;6.560;2022-07-30T02:16:44;2.85;;;2.00;;
20090;SDS011;10205;49.678;6.560;2022-07-30T02:19:18;2.67;;;2.00;;
20090;SDS011;10205;49.678;6.560;2022-07-30T02:21:51;3.08;;;1.95;;
20090;SDS011;10205;49.678;6.560;2022-07-30T02:24:29;2.30;;;1.60;;
20090;SDS011;10205;49.678;6.560;2022-07-30T02:27:04;2.75;;;1.88;;
20090;SDS011;10205;49.678;6.560;2022-07-30T02:29:40;1.83;;;1.67;;
20090;SDS011;10205;49.678;6.560;2022-07-30T02:32:11;2.10;;;1.90;;
20090;SDS011;10205;49.678;6.560;2022-07-30T02:34:44;2.38;;;1.92;;
20090;SDS011;10205;49.678;6.560;2022-07-30T02:37:17;2.50;;;2.03;;
20090;SDS011;10205;49.678;6.560;2022-07-30T02:39:47;2.33;;;1.80;;
20090;SDS011;10205;49.678;6.560;2022-07-30T02:42:18;2.05;;;1.85;;
20090;SDS011;10205;49.678;6.560;2022-07-30T02:44:49;2.20;;;1.77;;
20090;SDS011;10205;49.678;6.560;2022-07-30T02:47:20;2.25;;;1.67;;
20090;SDS011;10205;49.678;6.560;2022-07-30T02:49:50;1.67;;;1.45;;
20090;SDS011;10205;49.678;6.560;2022-07-30T02:52:20;1.95;;;1.75;;
20090;SDS011;10205;49.678;6.560;2022-07-30T02:54:49;2.03;;;1.85;;
20090;SDS011;10205;49.678;6.560;2022-07-30T02:57:23;2.85;;;1.77;;
20090;SDS011;10205;49.678;6.560;2022-07-30T02:59:53;2.47;;;1.80;;
20090;SDS011;10205;49.678;6.560;2022-07-30T03:02:23;2.25;;;1.67;;
20090;SDS011;10205;49.678;6.560;2022-07-30T03:04:51;2.45;;;2.00;;
20090;SDS011;10205;49.678;6.560;2022-07-30T03:07:20;2.25;;;1.90;;
20090;SDS011;10205;49.678;6.560;2022-07-30T03:09:49;2.42;;;1.83;;
20090;SDS011;10205;49.678;6.560;2022-07-30T03:12:21;1.77;;;1.58;;
20090;SDS011;10205;49.678;6.560;2022-07-30T03:14:54;2.03;;;1.80;;
20090;SDS011;10205;49.678;6.560;2022-07-30T03:17:22;1.60;;;1.50;;
20090;SDS011;10205;49.678;6.560;2022-07-30T03:19:54;2.67;;;1.50;;
20090;SDS011;10205;49.678;6.560;2022-07-30T03:22:24;3.30;;;1.90;;
20090;SDS011;10205;49.678;6.560;2022-07-30T03:24:53;1.63;;;1.50;;
20090;SDS011;10205;49.678;6.560;2022-07-30T03:27:27;2.33;;;1.70;;
20090;SDS011;10205;49.678;6.560;2022-07-30T03:29:56;1.58;;;1.42;;
20090;SDS011;10205;49.678;6.560;2022-07-30T03:32:27;2.33;;;1.98;;
20090;SDS011;10205;49.678;6.560;2022-07-30T03:34:55;2.42;;;1.73;;
20090;SDS011;10205;49.678;6.560;2022-07-30T03:37:24;1.77;;;1.67;;
20090;SDS011;10205;49.678;6.560;2022-07-30T03:39:53;1.73;;;1.63;;
20090;SDS011;10205;49.678;6.560;2022-07-30T03:42:23;2.38;;;1.50;;
20090;SDS011;10205;49.678;6.560;2022-07-30T03:44:55;1.73;;;1.63;;
20090;SDS011;10205;49.678;6.560;2022-07-30T03:47:23;2.00;;;1.58;;
20090;SDS011;10205;49.678;6.560;2022-07-30T03:49:52;2.83;;;1.70;;
20090;SDS011;10205;49.678;6.560;2022-07-30T03:52:19;2.28;;;1.88;;
20090;SDS011;10205;49.678;6.560;2022-07-30T03:54:47;3.38;;;1.60;;
20090;SDS011;10205;49.678;6.560;2022-07-30T03:57:17;1.63;;;1.52;;
20090;SDS011;10205;49.678;6.560;2022-07-30T03:59:45;1.92;;;1.67;;
20090;SDS011;10205;49.678;6.560;2022-07-30T04:02:17;1.88;;;1.67;;
20090;SDS011;10205;49.678;6.560;2022-07-30T04:04:44;4.72;;;1.90;;
20090;SDS011;10205;49.678;6.560;2022-07-30T04:07:12;2.83;;;1.98;;
20090;SDS011;10205;49.678;6.560;2022-07-30T04:09:40;2.22;;;1.75;;
20090;SDS011;10205;49.678;6.560;2022-07-30T04:12:08;2.58;;;1.70;;
20090;SDS011;10205;49.678;6.560;2022-07-30T04:14:38;2.05;;;1.85;;
20090;SDS011;10205;49.678;6.560;2022-07-30T04:17:08;1.98;;;1.77;;
20090;SDS011;10205;49.678;6.560;2022-07-30T04:19:45;2.10;;;1.90;;
20090;SDS011;10205;49.678;6.560;2022-07-30T04:22:19;2.03;;;1.73;;
20090;SDS011;10205;49.678;6.560;2022-07-30T04:24:52;1.60;;;1.50;;
20090;SDS011;10205;49.678;6.560;2022-07-30T04:27:22;2.08;;;1.80;;
20090;SDS011;10205;49.678;6.560;2022-07-30T04:29:51;1.77;;;1.60;;
20090;SDS011;10205;49.678;6.560;2022-07-30T04:32:19;1.75;;;1.63;;
20090;SDS011;10205;49.678;6.560;2022-07-30T04:34:48;2.00;;;1.80;;
20090;SDS011;10205;49.678;6.560;2022-07-30T04:37:20;2.13;;;1.83;;
20090;SDS011;10205;49.678;6.560;2022-07-30T04:39:49;2.72;;;1.92;;
20090;SDS011;10205;49.678;6.560;2022-07-30T04:42:19;2.75;;;1.85;;
20090;SDS011;10205;49.678;6.560;2022-07-30T04:44:46;1.85;;;1.42;;
20090;SDS011;10205;49.678;6.560;2022-07-30T04:47:14;2.55;;;1.55;;
20090;SDS011;10205;49.678;6.560;2022-07-30T04:49:41;4.20;;;1.85;;
20090;SDS011;10205;49.678;6.560;2022-07-30T04:52:11;1.67;;;1.58;;
20090;SDS011;10205;49.678;6.560;2022-07-30T04:54:44;2.10;;;1.90;;
20090;SDS011;10205;49.678;6.560;2022-07-30T04:57:16;1.85;;;1.75;;
20090;SDS011;10205;49.678;6.560;2022-07-30T04:59:45;2.45;;;1.52;;
20090;SDS011;10205;49.678;6.560;2022-07-30T05:02:13;1.95;;;1.80;;
20090;SDS011;10205;49.678;6.560;2022-07-30T05:04:44;2.22;;;2.00;;
20090;SDS011;10205;49.678;6.560;2022-07-30T05:07:15;1.90;;;1.80;;
20090;SDS011;10205;49.678;6.560;2022-07-30T05:09:45;2.97;;;1.80;;
20090;SDS011;10205;49.678;6.560;2022-07-30T05:12:13;3.05;;;1.80;;
20090;SDS011;10205;49.678;6.560;2022-07-30T05:14:40;1.90;;;1.80;;
20090;SDS011;10205;49.678;6.560;2022-07-30T05:17:08;2.08;;;1.98;;
20090;SDS011;10205;49.678;6.560;2022-07-30T05:19:35;1.90;;;1.65;;
20090;SDS011;10205;49.678;6.560;2022-07-30T05:22:03;1.70;;;1.60;;
20090;SDS011;10205;49.678;6.560;2022-07-30T05:24:32;2.55;;;1.88;;
20090;SDS011;10205;49.678;6.560;2022-07-30T05:26:59;2.00;;;1.50;;
20090;SDS011;10205;49.678;6.560;2022-07-30T05:29:27;1.60;;;1.42;;
20090;SDS011;10205;49.678;6.560;2022-07-30T05:31:54;2.60;;;1.80;;
20090;SDS011;10205;49.678;6.560;2022-07-30T05:34:21;2.13;;;1.90;;
20090;SDS011;10205;49.678;6.560;2022-07-30T05:36:48;1.90;;;1.58;;
20090;SDS011;10205;49.678;6.560;2022-07-30T05:39:16;2.00;;;1.90;;
20090;SDS011;10205;49.678;6.560;2022-07-30T05:41:45;2.08;;;1.83;;
20090;SDS011;10205;49.678;6.560;2022-07-30T05:44:12;1.98;;;1.70;;
20090;SDS011;10205;49.678;6.560;2022-07-30T05:46:40;1.52;;;1.42;;
20090;SDS011;10205;49.678;6.560;2022-07-30T05:49:08;2.25;;;2.05;;
20090;SDS011;10205;49.678;6.560;2022-07-30T05:51:35;2.70;;;1.85;;
20090;SDS011;10205;49.678;6.560;2022-07-30T05:54:02;4.05;;;2.00;;
20090;SDS011;10205;49.678;6.560;2022-07-30T05:56:30;2.15;;;1.95;;
20090;SDS011;10205;49.678;6.560;2022-07-30T05:58:59;3.17;;;1.95;;
20090;SDS011;10205;49.678;6.560;2022-07-30T06:01:26;2.47;;;2.13;;
20090;SDS011;10205;49.678;6.560;2022-07-30T06:03:53;1.80;;;1.70;;
20090;SDS011;10205;49.678;6.560;2022-07-30T06:06:21;1.88;;;1.70;;
20090;SDS011;10205;49.678;6.560;2022-07-30T06:08:48;2.95;;;2.10;;
20090;SDS011;10205;49.678;6.560;2022-07-30T06:11:15;2.20;;;2.00;;
20090;SDS011;10205;49.678;6.560;2022-07-30T06:13:43;2.30;;;1.85;;
20090;SDS011;10205;49.678;6.560;2022-07-30T06:16:11;1.95;;;1.70;;
20090;SDS011;10205;49.678;6.560;2022-07-30T06:18:39;2.65;;;1.70;;
20090;SDS011;10205;49.678;6.560;2022-07-30T06:21:06;4.00;;;2.13;;
20090;SDS011;10205;49.678;6.560;2022-07-30T06:23:34;2.63;;;1.80;;
20090;SDS011;10205;49.678;6.560;2022-07-30T06:26:01;2.22;;;2.03;;
20090;SDS011;10205;49.678;6.560;2022-07-30T06:28:28;2.60;;;2.40;;
20090;SDS011;10205;49.678;6.560;2022-07-30T06:30:55;2.55;;;1.90;;
20090;SDS011;10205;49.678;6.560;2022-07-30T06:33:24;2.42;;;2.15;;
20090;SDS011;10205;49.678;6.560;2022-07-30T06:35:51;2.40;;;2.20;;
20090;SDS011;10205;49.678;6.560;2022-07-30T06:38:19;2.22;;;2.00;;
20090;SDS011;10205;49.678;6.560;2022-07-30T06:40:46;1.90;;;1.70;;
20090;SDS011;10205;49.678;6.560;2022-07-30T06:43:13;2.17;;;1.98;;
20090;SDS011;10205;49.678;6.560;2022-07-30T06:45:40;2.38;;;2.10;;
20090;SDS011;10205;49.678;6.560;2022-07-30T06:48:07;2.28;;;1.90;;
20090;SDS011;10205;49.678;6.560;2022-07-30T06:50:36;2.45;;;2.25;;
20090;SDS011;10205;49.678;6.560;2022-07-30T06:53:05;2.38;;;2.17;;
20090;SDS011;10205;49.678;6.560;2022-07-30T06:55:32;3.08;;;1.95;;
20090;SDS011;10205;49.678;6.560;2022-07-30T06:57:59;2.03;;;1.80;;
20090;SDS011;10205;49.678;6.560;2022-07-30T07:00:27;2.25;;;2.05;;
20090;SDS011;10205;49.678;6.560;2022-07-30T07:02:54;2.42;;;2.00;;
20090;SDS011;10205;49.678;6.560;2022-07-30T07:05:21;2.78;;;1.92;;
20090;SDS011;10205;49.678;6.560;2022-07-30T07:07:54;3.08;;;1.90;;
20090;SDS011;10205;49.678;6.560;2022-07-30T07:10:21;4.57;;;2.60;;
20090;SDS011;10205;49.678;6.560;2022-07-30T07:12:49;2.38;;;2.13;;
20090;SDS011;10205;49.678;6.560;2022-07-30T07:15:16;2.95;;;2.05;;
20090;SDS011;10205;49.678;6.560;2022-07-30T07:17:43;2.60;;;2.10;;
20090;SDS011;10205;49.678;6.560;2022-07-30T07:20:13;2.70;;;2.40;;
20090;SDS011;10205;49.678;6.560;2022-07-30T07:22:40;2.70;;;2.47;;
20090;SDS011;10205;49.678;6.560;2022-07-30T07:25:09;3.65;;;2.30;;
20090;SDS011;10205;49.678;6.560;2022-07-30T07:27:36;3.10;;;2.35;;
20090;SDS011;10205;49.678;6.560;2022-07-30T07:30:04;2.55;;;2.33;;
20090;SDS011;10205;49.678;6.560;2022-07-30T07:32:35;2.95;;;2.30;;
20090;SDS011;10205;49.678;6.560;2022-07-30T07:35:03;2.97;;;2.30;;
20090;SDS011;10205;49.678;6.560;2022-07-30T07:37:31;5.20;;;3.15;;
20090;SDS011;10205;49.678;6.560;2022-07-30T07:39:59;4.05;;;2.20;;
20090;SDS011;10205;49.678;6.560;2022-07-30T07:42:28;3.78;;;2.78;;
20090;SDS011;10205;49.678;6.560;2022-07-30T07:44:55;2.42;;;2.15;;
20090;SDS011;10205;49.678;6.560;2022-07-30T07:47:22;6.40;;;3.50;;
20090;SDS011;10205;49.678;6.560;2022-07-30T07:49:49;5.45;;;2.85;;
20090;SDS011;10205;49.678;6.560;2022-07-30T07:52:20;3.88;;;2.50;;
20090;SDS011;10205;49.678;6.560;2022-07-30T07:54:48;3.83;;;2.65;;
20090;SDS011;10205;49.678;6.560;2022-07-30T07:57:15;6.93;;;2.95;;
20090;SDS011;10205;49.678;6.560;2022-07-30T07:59:44;4.72;;;3.20;;
20090;SDS011;10205;49.678;6.560;2022-07-30T08:02:12;5.90;;;2.97;;
20090;SDS011;10205;49.678;6.560;2022-07-30T08:04:39;3.83;;;3.33;;
20090;SDS011;10205;49.678;6.560;2022-07-30T08:07:06;5.88;;;3.45;;
20090;SDS011;10205;49.678;6.560;2022-07-30T08:09:33;4.30;;;3.00;;
20090;SDS011;10205;49.678;6.560;2022-07-30T08:12:01;5.13;;;3.08;;
20090;SDS011;10205;49.678;6.560;2022-07-30T08:14:32;4.85;;;3.28;;
20090;SDS011;10205;49.678;6.560;2022-07-30T08:17:00;6.50;;;3.83;;
20090;SDS011;10205;49.678;6.560;2022-07-30T08:19:28;4.18;;;2.92;;
20090;SDS011;10205;49.678;6.560;2022-07-30T08:21:59;2.90;;;2.47;;
20090;SDS011;10205;49.678;6.560;2022-07-30T08:24:26;5.25;;;3.05;;
20090;SDS011;10205;49.678;6.560;2022-07-30T08:26:54;5.82;;;2.70;;
20090;SDS011;10205;49.678;6.560;2022-07-30T08:29:21;3.75;;;3.05;;
20090;SDS011;10205;49.678;6.560;2022-07-30T08:31:49;2.67;;;2.35;;
20090;SDS011;10205;49.678;6.560;2022-07-30T08:34:18;3.28;;;2.85;;
20090;SDS011;10205;49.678;6.560;2022-07-30T08:36:45;3.50;;;2.70;;
20090;SDS011;10205;49.678;6.560;2022-07-30T08:39:13;3.97;;;2.60;;
20090;SDS011;10205;49.678;6.560;2022-07-30T08:41:40;6.60;;;2.95;;
20090;SDS011;10205;49.678;6.560;2022-07-30T08:44:10;11.18;;;2.40;;
20090;SDS011;10205;49.678;6.560;2022-07-30T08:46:39;5.05;;;2.50;;
20090;SDS011;10205;49.678;6.560;2022-07-30T08:49:10;4.00;;;2.55;;
20090;SDS011;10205;49.678;6.560;2022-07-30T08:51:39;3.25;;;2.47;;
20090;SDS011;10205;49.678;6.560;2022-07-30T08:54:10;6.22;;;3.05;;
20090;SDS011;10205;49.678;6.560;2022-07-30T08:56:38;5.20;;;2.70;;
20090;SDS011;10205;49.678;6.560;2022-07-30T08:59:05;5.22;;;2.47;;
20090;SDS011;10205;49.678;6.560;2022-07-30T09:01:33;8.80;;;2.58;;
20090;SDS011;10205;49.678;6.560;2022-07-30T09:04:00;3.38;;;2.50;;
20090;SDS011;10205;49.678;6.560;2022-07-30T09:06:27;2.60;;;2.40;;
20090;SDS011;10205;49.678;6.560;2022-07-30T09:08:56;5.80;;;2.33;;
20090;SDS011;10205;49.678;6.560;2022-07-30T09:11:26;2.88;;;2.20;;
20090;SDS011;10205;49.678;6.560;2022-07-30T09:13:53;4.13;;;2.00;;
20090;SDS011;10205;49.678;6.560;2022-07-30T09:16:21;2.80;;;2.25;;
20090;SDS011;10205;49.678;6.560;2022-07-30T09:18:50;5.03;;;2.40;;
20090;SDS011;10205;49.678;6.560;2022-07-30T09:21:21;7.93;;;2.03;;
20090;SDS011;10205;49.678;6.560;2022-07-30T09:23:55;4.80;;;2.38;;
20090;SDS011;10205;49.678;6.560;2022-07-30T09:26:26;3.28;;;2.30;;
20090;SDS011;10205;49.678;6.560;2022-07-30T09:28:54;4.65;;;2.40;;
20090;SDS011;10205;49.678;6.560;2022-07-30T09:31:51;5.72;;;1.77;;
20090;SDS011;10205;49.678;6.560;2022-07-30T09:34:26;3.97;;;1.83;;
20090;SDS011;10205;49.678;6.560;2022-07-30T09:36:56;4.00;;;1.60;;
20090;SDS011;10205;49.678;6.560;2022-07-30T09:39:31;1.98;;;1.63;;
20090;SDS011;10205;49.678;6.560;2022-07-30T09:42:01;6.97;;;1.70;;
20090;SDS011;10205;49.678;6.560;2022-07-30T09:44:30;2.47;;;1.45;;
20090;SDS011;10205;49.678;6.560;2022-07-30T09:46:57;1.95;;;1.27;;
20090;SDS011;10205;49.678;6.560;2022-07-30T09:49:27;2.17;;;1.27;;
20090;SDS011;10205;49.678;6.560;2022-07-30T09:51:55;1.73;;;1.30;;
20090;SDS011;10205;49.678;6.560;2022-07-30T09:54:23;1.60;;;1.25;;
20090;SDS011;10205;49.678;6.560;2022-07-30T09:57:11;3.50;;;1.30;;
20090;SDS011;10205;49.678;6.560;2022-07-30T09:59:38;2.58;;;1.50;;
20090;SDS011;10205;49.678;6.560;2022-07-30T10:02:05;2.75;;;1.42;;
20090;SDS011;10205;49.678;6.560;2022-07-30T10:04:36;2.65;;;1.20;;
20090;SDS011;10205;49.678;6.560;2022-07-30T10:07:03;3.25;;;1.08;;
20090;SDS011;10205;49.678;6.560;2022-07-30T10:09:43;1.35;;;1.10;;
20090;SDS011;10205;49.678;6.560;2022-07-30T10:12:14;3.03;;;1.00;;
20090;SDS011;10205;49.678;6.560;2022-07-30T10:14:46;2.10;;;0.95;;
20090;SDS011;10205;49.678;6.560;2022-07-30T10:17:18;2.22;;;0.90;;
20090;SDS011;10205;49.678;6.560;2022-07-30T10:19:45;2.17;;;1.08;;
20090;SDS011;10205;49.678;6.560;2022-07-30T10:22:13;3.45;;;1.30;;
20090;SDS011;10205;49.678;6.560;2022-07-30T10:24:42;1.52;;;1.13;;
20090;SDS011;10205;49.678;6.560;2022-07-30T10:27:11;2.85;;;0.90;;
20090;SDS011;10205;49.678;6.560;2022-07-30T10:29:40;1.52;;;1.17;;
20090;SDS011;10205;49.678;6.560;2022-07-30T10:32:09;1.80;;;1.17;;
20090;SDS011;10205;49.678;6.560;2022-07-30T10:34:37;1.42;;;0.95;;
20090;SDS011;10205;49.678;6.560;2022-07-30T10:37:05;3.80;;;1.15;;
20090;SDS011;10205;49.678;6.560;2022-07-30T10:39:34;1.10;;;1.00;;
20090;SDS011;10205;49.678;6.560;2022-07-30T10:42:11;4.93;;;1.48;;
20090;SDS011;10205;49.678;6.560;2022-07-30T10:47:55;3.63;;;1.25;;
20090;SDS011;10205;49.678;6.560;2022-07-30T10:50:23;2.20;;;1.00;;
20090;SDS011;10205;49.678;6.560;2022-07-30T10:52:53;1.52;;;0.82;;
20090;SDS011;10205;49.678;6.560;2022-07-30T10:55:25;3.13;;;1.23;;
20090;SDS011;10205;49.678;6.560;2022-07-30T10:58:04;1.40;;;1.10;;
20090;SDS011;10205;49.678;6.560;2022-07-30T11:00:35;1.17;;;1.00;;
20090;SDS011;10205;49.678;6.560;2022-07-30T11:03:26;2.35;;;1.00;;
20090;SDS011;10205;49.678;6.560;2022-07-30T11:08:54;1.98;;;1.20;;
20090;SDS011;10205;49.678;6.560;2022-07-30T11:14:10;1.45;;;0.98;;
20090;SDS011;10205;49.678;6.560;2022-07-30T11:16:58;1.70;;;1.00;;
20090;SDS011;10205;49.678;6.560;2022-07-30T11:19:26;1.27;;;1.10;;
20090;SDS011;10205;49.678;6.560;2022-07-30T11:24:51;1.10;;;0.90;;
20090;SDS011;10205;49.678;6.560;2022-07-30T11:27:37;3.33;;;1.15;;
20090;SDS011;10205;49.678;6.560;2022-07-30T11:38:51;2.25;;;1.00;;
20090;SDS011;10205;49.678;6.560;2022-07-30T11:41:20;1.50;;;0.80;;
20090;SDS011;10205;49.678;6.560;2022-07-30T11:43:48;3.47;;;1.10;;
20090;SDS011;10205;49.678;6.560;2022-07-30T11:46:54;1.33;;;0.93;;
20090;SDS011;10205;49.678;6.560;2022-07-30T11:49:23;0.88;;;0.73;;
20090;SDS011;10205;49.678;6.560;2022-07-30T11:51:51;0.70;;;0.70;;
20090;SDS011;10205;49.678;6.560;2022-07-30T11:54:20;1.40;;;1.17;;
20090;SDS011;10205;49.678;6.560;2022-07-30T11:56:48;2.45;;;0.90;;
20090;SDS011;10205;49.678;6.560;2022-07-30T11:59:17;1.10;;;0.82;;
20090;SDS011;10205;49.678;6.560;2022-07-30T12:01:48;2.05;;;0.82;;
20090;SDS011;10205;49.678;6.560;2022-07-30T12:04:16;2.58;;;1.00;;
20090;SDS011;10205;49.678;6.560;2022-07-30T12:06:46;2.30;;;0.90;;
20090;SDS011;10205;49.678;6.560;2022-07-30T12:09:20;0.90;;;0.70;;
20090;SDS011;10205;49.678;6.560;2022-07-30T12:11:48;1.33;;;0.80;;
20090;SDS011;10205;49.678;6.560;2022-07-30T12:14:16;0.80;;;0.80;;
20090;SDS011;10205;49.678;6.560;2022-07-30T12:16:47;1.35;;;0.80;;
20090;SDS011;10205;49.678;6.560;2022-07-30T12:19:16;1.70;;;0.68;;
20090;SDS011;10205;49.678;6.560;2022-07-30T12:21:45;1.17;;;0.90;;
20090;SDS011;10205;49.678;6.560;2022-07-30T12:24:13;0.75;;;0.60;;
20090;SDS011;10205;49.678;6.560;2022-07-30T12:26:41;1.95;;;0.88;;
20090;SDS011;10205;49.678;6.560;2022-07-30T12:29:08;0.80;;;0.70;;
20090;SDS011;10205;49.678;6.560;2022-07-30T12:31:38;0.73;;;0.70;;
20090;SDS011;10205;49.678;6.560;2022-07-30T12:34:17;1.25;;;0.80;;
20090;SDS011;10205;49.678;6.560;2022-07-30T12:36:47;0.90;;;0.75;;
20090;SDS011;10205;49.678;6.560;2022-07-30T12:39:18;0.80;;;0.80;;
20090;SDS011;10205;49.678;6.560;2022-07-30T12:41:47;2.05;;;0.60;;
20090;SDS011;10205;49.678;6.560;2022-07-30T12:44:32;3.45;;;0.90;;
20090;SDS011;10205;49.678;6.560;2022-07-30T12:47:05;1.17;;;0.70;;
20090;SDS011;10205;49.678;6.560;2022-07-30T12:49:44;0.70;;;0.70;;
20090;SDS011;10205;49.678;6.560;2022-07-30T12:52:20;0.77;;;0.60;;
20090;SDS011;10205;49.678;6.560;2022-07-30T12:54:57;0.95;;;0.68;;
20090;SDS011;10205;49.678;6.560;2022-07-30T12:57:26;1.30;;;0.80;;
20090;SDS011;10205;49.678;6.560;2022-07-30T13:00:00;1.35;;;0.80;;
20090;SDS011;10205;49.678;6.560;2022-07-30T13:02:32;1.00;;;0.90;;
20090;SDS011;10205;49.678;6.560;2022-07-30T13:05:00;3.30;;;0.93;;
20090;SDS011;10205;49.678;6.560;2022-07-30T13:07:30;0.77;;;0.57;;
20090;SDS011;10205;49.678;6.560;2022-07-30T13:10:08;0.70;;;0.60;;
20090;SDS011;10205;49.678;6.560;2022-07-30T13:12:38;1.35;;;0.68;;
20090;SDS011;10205;49.678;6.560;2022-07-30T13:15:06;0.98;;;0.70;;
20090;SDS011;10205;49.678;6.560;2022-07-30T13:17:42;1.10;;;0.80;;
20090;SDS011;10205;49.678;6.560;2022-07-30T13:20:10;1.05;;;0.63;;
20090;SDS011;10205;49.678;6.560;2022-07-30T13:22:40;1.25;;;0.70;;
20090;SDS011;10205;49.678;6.560;2022-07-30T13:25:08;3.50;;;0.70;;
20090;SDS011;10205;49.678;6.560;2022-07-30T13:27:37;1.13;;;0.90;;
20090;SDS011;10205;49.678;6.560;2022-07-30T13:30:05;2.58;;;0.77;;
20090;SDS011;10205;49.678;6.560;2022-07-30T13:32:34;0.60;;;0.60;;
20090;SDS011;10205;49.678;6.560;2022-07-30T13:35:01;1.08;;;0.70;;
20090;SDS011;10205;49.678;6.560;2022-07-30T13:37:29;5.80;;;0.70;;
20090;SDS011;10205;49.678;6.560;2022-07-30T13:39:58;0.90;;;0.60;;
20090;SDS011;10205;49.678;6.560;2022-07-30T13:42:25;0.85;;;0.60;;
20090;SDS011;10205;49.678;6.560;2022-07-30T13:44:55;0.98;;;0.70;;
20090;SDS011;10205;49.678;6.560;2022-07-30T13:47:22;1.23;;;0.70;;
20090;SDS011;10205;49.678;6.560;2022-07-30T13:49:49;0.60;;;0.52;;
20090;SDS011;10205;49.678;6.560;2022-07-30T13:52:17;0.45;;;0.45;;
20090;SDS011;10205;49.678;6.560;2022-07-30T13:54:44;1.75;;;0.70;;
20090;SDS011;10205;49.678;6.560;2022-07-30T13:57:13;2.55;;;0.60;;
20090;SDS011;10205;49.678;6.560;2022-07-30T13:59:41;1.15;;;0.80;;
20090;SDS011;10205;49.678;6.560;2022-07-30T14:02:08;0.82;;;0.65;;
20090;SDS011;10205;49.678;6.560;2022-07-30T14:04:35;1.10;;;0.50;;
20090;SDS011;10205;49.678;6.560;2022-07-30T14:07:02;1.30;;;0.55;;
20090;SDS011;10205;49.678;6.560;2022-07-30T14:09:30;1.92;;;0.57;;
20090;SDS011;10205;49.678;6.560;2022-07-30T14:11:59;0.88;;;0.60;;
20090;SDS011;10205;49.678;6.560;2022-07-30T14:14:27;0.70;;;0.70;;
20090;SDS011;10205;49.678;6.560;2022-07-30T14:16:55;1.05;;;0.70;;
20090;SDS011;10205;49.678;6.560;2022-07-30T14:19:22;0.98;;;0.88;;
20090;SDS011;10205;49.678;6.560;2022-07-30T14:21:50;1.77;;;0.90;;
20090;SDS011;10205;49.678;6.560;2022-07-30T14:24:18;1.02;;;0.60;;
20090;SDS011;10205;49.678;6.560;2022-07-30T14:26:49;0.90;;;0.80;;
20090;SDS011;10205;49.678;6.560;2022-07-30T14:29:17;1.23;;;0.63;;
20090;SDS011;10205;49.678;6.560;2022-07-30T14:31:46;0.75;;;0.70;;
20090;SDS011;10205;49.678;6.560;2022-07-30T14:34:14;0.68;;;0.50;;
20090;SDS011;10205;49.678;6.560;2022-07-30T14:36:43;1.00;;;0.65;;
20090;SDS011;10205;49.678;6.560;2022-07-30T14:39:10;1.13;;;0.77;;
20090;SDS011;10205;49.678;6.560;2022-07-30T14:41:38;0.85;;;0.75;;
20090;SDS011;10205;49.678;6.560;2022-07-30T14:44:07;0.63;;;0.63;;
20090;SDS011;10205;49.678;6.560;2022-07-30T14:46:36;0.70;;;0.70;;
20090;SDS011;10205;49.678;6.560;2022-07-30T14:49:05;0.98;;;0.70;;
20090;SDS011;10205;49.678;6.560;2022-07-30T14:51:33;1.00;;;0.90;;
20090;SDS011;10205;49.678;6.560;2022-07-30T14:54:01;1.38;;;0.70;;
20090;SDS011;10205;49.678;6.560;2022-07-30T14:56:29;0.50;;;0.50;;
20090;SDS011;10205;49.678;6.560;2022-07-30T14:58:56;1.10;;;0.80;;
20090;SDS011;10205;49.678;6.560;2022-07-30T15:01:23;1.02;;;0.80;;
20090;SDS011;10205;49.678;6.560;2022-07-30T15:03:50;0.77;;;0.77;;
20090;SDS011;10205;49.678;6.560;2022-07-30T15:06:19;0.90;;;0.80;;
20090;SDS011;10205;49.678;6.560;2022-07-30T15:08:47;0.93;;;0.82;;
20090;SDS011;10205;49.678;6.560;2022-07-30T15:11:14;0.77;;;0.70;;
20090;SDS011;10205;49.678;6.560;2022-07-30T15:13:41;0.60;;;0.60;;
20090;SDS011;10205;49.678;6.560;2022-07-30T15:16:09;1.05;;;0.82;;
20090;SDS011;10205;49.678;6.560;2022-07-30T15:18:37;1.33;;;0.70;;
20090;SDS011;10205;49.678;6.560;2022-07-30T15:21:04;1.80;;;1.00;;
20090;SDS011;10205;49.678;6.560;2022-07-30T15:23:33;1.55;;;0.88;;